sensor_id;sensor_type;location;lat;lon;timestamp;P1;durP1;ratioP1;P2;durP2;ratioP2
18340;SDS011;9296;48.084;16.352;2024-03-22T00:00:56;11.05;;;8.93;;
18340;SDS011;9296;48.084;16.352;2024-03-22T00:03:38;11.55;;;8.90;;
18340;SDS011;9296;48.084;16.352;2024-03-22T00:06:36;11.50;;;9.23;;
18340;SDS011;9296;48.084;16.352;2024-03-22T00:09:27;11.48;;;9.55;;
18340;SDS011;9296;48.084;16.352;2024-03-22T00:11:53;10.85;;;8.57;;
18340;SDS011;9296;48.084;16.352;2024-03-22T00:17:51;13.45;;;9.45;;
18340;SDS011;9296;48.084;16.352;2024-03-22T00:23:44;12.27;;;9.77;;
18340;SDS011;9296;48.084;16.352;2024-03-22T00:31:54;12.18;;;9.98;;
18340;SDS011;9296;48.084;16.352;2024-03-22T00:58:10;13.77;;;10.98;;
18340;SDS011;9296;48.084;16.352;2024-03-22T01:00:53;14.02;;;11.50;;
18340;SDS011;9296;48.084;16.352;2024-03-22T01:07:01;15.18;;;11.55;;
18340;SDS011;9296;48.084;16.352;2024-03-22T01:09:45;14.65;;;11.80;;
18340;SDS011;9296;48.084;16.352;2024-03-22T01:12:18;14.82;;;11.52;;
18340;SDS011;9296;48.084;16.352;2024-03-22T01:18:15;15.48;;;11.85;;
18340;SDS011;9296;48.084;16.352;2024-03-22T01:23:47;16.52;;;12.30;;
18340;SDS011;9296;48.084;16.352;2024-03-22T01:29:30;15.70;;;12.45;;
18340;SDS011;9296;48.084;16.352;2024-03-22T01:32:47;16.88;;;12.88;;
18340;SDS011;9296;48.084;16.352;2024-03-22T01:56:29;17.10;;;12.98;;
18340;SDS011;9296;48.084;16.352;2024-03-22T01:59:32;17.08;;;12.70;;
18340;SDS011;9296;48.084;16.352;2024-03-22T02:02:39;14.77;;;11.88;;
18340;SDS011;9296;48.084;16.352;2024-03-22T02:05:17;16.30;;;13.18;;
18340;SDS011;9296;48.084;16.352;2024-03-22T02:07:59;16.50;;;12.68;;
18340;SDS011;9296;48.084;16.352;2024-03-22T02:10:52;16.88;;;12.52;;
18340;SDS011;9296;48.084;16.352;2024-03-22T02:16:39;19.83;;;13.80;;
18340;SDS011;9296;48.084;16.352;2024-03-22T02:19:17;20.00;;;13.95;;
18340;SDS011;9296;48.084;16.352;2024-03-22T02:42:10;19.00;;;14.00;;
18340;SDS011;9296;48.084;16.352;2024-03-22T02:47:23;17.13;;;12.88;;
18340;SDS011;9296;48.084;16.352;2024-03-22T02:50:12;17.10;;;13.50;;
18340;SDS011;9296;48.084;16.352;2024-03-22T03:23:37;20.67;;;14.65;;
18340;SDS011;9296;48.084;16.352;2024-03-22T03:29:27;19.02;;;14.30;;
18340;SDS011;9296;48.084;16.352;2024-03-22T03:32:00;19.38;;;14.23;;
18340;SDS011;9296;48.084;16.352;2024-03-22T03:34:31;21.17;;;14.75;;
18340;SDS011;9296;48.084;16.352;2024-03-22T04:19:18;15.68;;;12.40;;
18340;SDS011;9296;48.084;16.352;2024-03-22T04:25:22;16.85;;;12.90;;
18340;SDS011;9296;48.084;16.352;2024-03-22T04:28:09;18.05;;;12.70;;
18340;SDS011;9296;48.084;16.352;2024-03-22T04:31:05;19.67;;;13.07;;
18340;SDS011;9296;48.084;16.352;2024-03-22T04:39:16;17.65;;;12.88;;
18340;SDS011;9296;48.084;16.352;2024-03-22T04:42:08;16.30;;;12.40;;
18340;SDS011;9296;48.084;16.352;2024-03-22T04:44:50;18.80;;;12.80;;
18340;SDS011;9296;48.084;16.352;2024-03-22T04:47:39;16.65;;;12.20;;
18340;SDS011;9296;48.084;16.352;2024-03-22T04:50:21;21.70;;;12.20;;
18340;SDS011;9296;48.084;16.352;2024-03-22T05:13:02;15.05;;;11.57;;
18340;SDS011;9296;48.084;16.352;2024-03-22T05:43:07;15.65;;;11.35;;
18340;SDS011;9296;48.084;16.352;2024-03-22T05:48:41;17.20;;;12.05;;
18340;SDS011;9296;48.084;16.352;2024-03-22T05:51:26;17.30;;;12.32;;
18340;SDS011;9296;48.084;16.352;2024-03-22T05:54:19;20.50;;;13.05;;
18340;SDS011;9296;48.084;16.352;2024-03-22T05:56:52;18.20;;;12.93;;
18340;SDS011;9296;48.084;16.352;2024-03-22T06:05:30;19.95;;;13.95;;
18340;SDS011;9296;48.084;16.352;2024-03-22T06:08:17;21.45;;;14.73;;
18340;SDS011;9296;48.084;16.352;2024-03-22T06:11:20;18.95;;;14.05;;
18340;SDS011;9296;48.084;16.352;2024-03-22T06:14:09;22.00;;;14.48;;
18340;SDS011;9296;48.084;16.352;2024-03-22T06:16:46;21.33;;;13.73;;
18340;SDS011;9296;48.084;16.352;2024-03-22T06:19:17;20.92;;;14.30;;
18340;SDS011;9296;48.084;16.352;2024-03-22T06:24:45;20.90;;;14.95;;
18340;SDS011;9296;48.084;16.352;2024-03-22T06:27:14;22.17;;;14.85;;
18340;SDS011;9296;48.084;16.352;2024-03-22T06:29:42;20.92;;;14.30;;
18340;SDS011;9296;48.084;16.352;2024-03-22T06:32:29;26.02;;;14.95;;
18340;SDS011;9296;48.084;16.352;2024-03-22T06:35:19;22.48;;;15.73;;
18340;SDS011;9296;48.084;16.352;2024-03-22T06:37:45;21.23;;;14.77;;
18340;SDS011;9296;48.084;16.352;2024-03-22T06:43:29;21.13;;;14.40;;
18340;SDS011;9296;48.084;16.352;2024-03-22T06:45:58;22.60;;;15.05;;
18340;SDS011;9296;48.084;16.352;2024-03-22T06:48:36;21.92;;;14.95;;
18340;SDS011;9296;48.084;16.352;2024-03-22T06:51:02;21.45;;;15.05;;
18340;SDS011;9296;48.084;16.352;2024-03-22T06:53:32;21.17;;;14.25;;
18340;SDS011;9296;48.084;16.352;2024-03-22T06:55:59;20.70;;;13.68;;
18340;SDS011;9296;48.084;16.352;2024-03-22T06:58:35;21.83;;;14.15;;
18340;SDS011;9296;48.084;16.352;2024-03-22T07:01:02;21.02;;;14.80;;
18340;SDS011;9296;48.084;16.352;2024-03-22T07:03:31;21.70;;;13.88;;
18340;SDS011;9296;48.084;16.352;2024-03-22T07:05:58;18.48;;;13.85;;
18340;SDS011;9296;48.084;16.352;2024-03-22T07:08:26;20.77;;;13.65;;
18340;SDS011;9296;48.084;16.352;2024-03-22T07:10:53;21.98;;;14.30;;
18340;SDS011;9296;48.084;16.352;2024-03-22T07:13:21;21.20;;;14.70;;
18340;SDS011;9296;48.084;16.352;2024-03-22T07:15:49;22.02;;;14.15;;
18340;SDS011;9296;48.084;16.352;2024-03-22T07:18:16;18.48;;;14.50;;
18340;SDS011;9296;48.084;16.352;2024-03-22T07:20:44;18.35;;;13.38;;
18340;SDS011;9296;48.084;16.352;2024-03-22T07:23:13;27.30;;;14.35;;
18340;SDS011;9296;48.084;16.352;2024-03-22T07:25:39;21.70;;;14.43;;
18340;SDS011;9296;48.084;16.352;2024-03-22T07:28:07;22.17;;;14.45;;
18340;SDS011;9296;48.084;16.352;2024-03-22T07:30:34;18.70;;;13.55;;
18340;SDS011;9296;48.084;16.352;2024-03-22T07:33:03;17.95;;;13.25;;
18340;SDS011;9296;48.084;16.352;2024-03-22T07:35:30;20.63;;;13.93;;
18340;SDS011;9296;48.084;16.352;2024-03-22T07:41:00;19.25;;;13.82;;
18340;SDS011;9296;48.084;16.352;2024-03-22T07:43:29;19.17;;;12.85;;
18340;SDS011;9296;48.084;16.352;2024-03-22T07:45:55;19.48;;;13.45;;
18340;SDS011;9296;48.084;16.352;2024-03-22T07:48:24;21.08;;;13.77;;
18340;SDS011;9296;48.084;16.352;2024-03-22T07:50:55;20.02;;;13.35;;
18340;SDS011;9296;48.084;16.352;2024-03-22T07:53:41;19.25;;;13.07;;
18340;SDS011;9296;48.084;16.352;2024-03-22T07:56:07;19.17;;;13.57;;
18340;SDS011;9296;48.084;16.352;2024-03-22T07:58:34;19.17;;;13.20;;
18340;SDS011;9296;48.084;16.352;2024-03-22T08:01:00;18.52;;;13.23;;
18340;SDS011;9296;48.084;16.352;2024-03-22T08:03:29;20.92;;;13.48;;
18340;SDS011;9296;48.084;16.352;2024-03-22T08:05:55;19.58;;;13.63;;
18340;SDS011;9296;48.084;16.352;2024-03-22T08:08:23;19.48;;;12.80;;
18340;SDS011;9296;48.084;16.352;2024-03-22T08:10:49;22.30;;;13.75;;
18340;SDS011;9296;48.084;16.352;2024-03-22T08:13:17;19.20;;;12.88;;
18340;SDS011;9296;48.084;16.352;2024-03-22T08:15:43;19.05;;;13.02;;
18340;SDS011;9296;48.084;16.352;2024-03-22T08:18:11;20.40;;;12.57;;
18340;SDS011;9296;48.084;16.352;2024-03-22T08:20:39;15.77;;;12.18;;
18340;SDS011;9296;48.084;16.352;2024-03-22T08:23:07;16.10;;;11.77;;
18340;SDS011;9296;48.084;16.352;2024-03-22T08:25:33;17.65;;;11.80;;
18340;SDS011;9296;48.084;16.352;2024-03-22T08:28:02;17.10;;;12.18;;
18340;SDS011;9296;48.084;16.352;2024-03-22T08:30:28;17.17;;;11.60;;
18340;SDS011;9296;48.084;16.352;2024-03-22T08:32:55;17.38;;;11.88;;
18340;SDS011;9296;48.084;16.352;2024-03-22T08:35:22;15.82;;;10.25;;
18340;SDS011;9296;48.084;16.352;2024-03-22T08:37:50;15.80;;;11.18;;
18340;SDS011;9296;48.084;16.352;2024-03-22T08:40:17;16.88;;;11.00;;
18340;SDS011;9296;48.084;16.352;2024-03-22T08:42:44;17.17;;;11.43;;
18340;SDS011;9296;48.084;16.352;2024-03-22T08:45:10;14.95;;;11.00;;
18340;SDS011;9296;48.084;16.352;2024-03-22T08:47:37;15.68;;;11.35;;
18340;SDS011;9296;48.084;16.352;2024-03-22T08:50:05;16.05;;;10.73;;
18340;SDS011;9296;48.084;16.352;2024-03-22T08:52:32;14.38;;;11.00;;
18340;SDS011;9296;48.084;16.352;2024-03-22T08:55:02;15.45;;;10.90;;
18340;SDS011;9296;48.084;16.352;2024-03-22T08:57:30;16.55;;;11.15;;
18340;SDS011;9296;48.084;16.352;2024-03-22T08:59:57;15.90;;;10.65;;
18340;SDS011;9296;48.084;16.352;2024-03-22T09:02:25;13.60;;;11.07;;
18340;SDS011;9296;48.084;16.352;2024-03-22T09:04:52;15.25;;;10.63;;
18340;SDS011;9296;48.084;16.352;2024-03-22T09:07:19;14.68;;;10.48;;
18340;SDS011;9296;48.084;16.352;2024-03-22T09:09:45;15.77;;;11.35;;
18340;SDS011;9296;48.084;16.352;2024-03-22T09:12:14;14.02;;;10.55;;
18340;SDS011;9296;48.084;16.352;2024-03-22T09:14:40;14.85;;;11.32;;
18340;SDS011;9296;48.084;16.352;2024-03-22T09:17:08;18.80;;;11.32;;
18340;SDS011;9296;48.084;16.352;2024-03-22T09:19:34;16.73;;;11.35;;
18340;SDS011;9296;48.084;16.352;2024-03-22T09:22:01;16.60;;;11.40;;
18340;SDS011;9296;48.084;16.352;2024-03-22T09:24:28;15.48;;;11.32;;
18340;SDS011;9296;48.084;16.352;2024-03-22T09:26:55;16.73;;;11.68;;
18340;SDS011;9296;48.084;16.352;2024-03-22T09:29:23;15.35;;;11.25;;
18340;SDS011;9296;48.084;16.352;2024-03-22T09:31:50;15.82;;;11.15;;
18340;SDS011;9296;48.084;16.352;2024-03-22T09:34:16;15.40;;;11.23;;
18340;SDS011;9296;48.084;16.352;2024-03-22T09:36:57;15.73;;;10.07;;
18340;SDS011;9296;48.084;16.352;2024-03-22T09:39:23;17.70;;;11.30;;
18340;SDS011;9296;48.084;16.352;2024-03-22T09:41:52;14.55;;;10.77;;
18340;SDS011;9296;48.084;16.352;2024-03-22T09:44:18;17.02;;;10.63;;
18340;SDS011;9296;48.084;16.352;2024-03-22T09:46:47;14.20;;;10.85;;
18340;SDS011;9296;48.084;16.352;2024-03-22T09:49:14;14.35;;;10.50;;
18340;SDS011;9296;48.084;16.352;2024-03-22T09:51:43;14.10;;;10.25;;
18340;SDS011;9296;48.084;16.352;2024-03-22T09:54:09;14.85;;;10.70;;
18340;SDS011;9296;48.084;16.352;2024-03-22T09:56:37;13.32;;;9.90;;
18340;SDS011;9296;48.084;16.352;2024-03-22T09:59:04;14.82;;;9.65;;
18340;SDS011;9296;48.084;16.352;2024-03-22T10:01:32;14.73;;;9.60;;
18340;SDS011;9296;48.084;16.352;2024-03-22T10:04:00;13.15;;;9.38;;
18340;SDS011;9296;48.084;16.352;2024-03-22T10:06:28;13.15;;;9.23;;
18340;SDS011;9296;48.084;16.352;2024-03-22T10:08:57;14.82;;;9.45;;
18340;SDS011;9296;48.084;16.352;2024-03-22T10:11:25;11.85;;;9.35;;
18340;SDS011;9296;48.084;16.352;2024-03-22T10:13:52;14.65;;;9.88;;
18340;SDS011;9296;48.084;16.352;2024-03-22T10:16:20;13.63;;;9.77;;
18340;SDS011;9296;48.084;16.352;2024-03-22T10:18:46;12.55;;;8.75;;
18340;SDS011;9296;48.084;16.352;2024-03-22T10:21:18;12.02;;;8.93;;
18340;SDS011;9296;48.084;16.352;2024-03-22T10:23:44;10.77;;;8.55;;
18340;SDS011;9296;48.084;16.352;2024-03-22T10:26:13;12.63;;;8.68;;
18340;SDS011;9296;48.084;16.352;2024-03-22T10:28:44;10.52;;;8.20;;
18340;SDS011;9296;48.084;16.352;2024-03-22T10:31:11;15.80;;;8.65;;
18340;SDS011;9296;48.084;16.352;2024-03-22T10:33:38;12.07;;;8.02;;
18340;SDS011;9296;48.084;16.352;2024-03-22T10:36:06;11.18;;;8.05;;
18340;SDS011;9296;48.084;16.352;2024-03-22T10:38:34;9.85;;;7.70;;
18340;SDS011;9296;48.084;16.352;2024-03-22T10:41:03;9.73;;;7.13;;
18340;SDS011;9296;48.084;16.352;2024-03-22T10:43:30;8.55;;;7.03;;
18340;SDS011;9296;48.084;16.352;2024-03-22T10:46:01;13.32;;;7.05;;
18340;SDS011;9296;48.084;16.352;2024-03-22T10:48:29;12.85;;;7.40;;
18340;SDS011;9296;48.084;16.352;2024-03-22T10:50:59;9.13;;;6.57;;
18340;SDS011;9296;48.084;16.352;2024-03-22T10:56:30;9.05;;;6.63;;
18340;SDS011;9296;48.084;16.352;2024-03-22T10:59:02;7.88;;;6.00;;
18340;SDS011;9296;48.084;16.352;2024-03-22T11:01:29;10.50;;;6.63;;
18340;SDS011;9296;48.084;16.352;2024-03-22T11:04:04;11.27;;;6.63;;
18340;SDS011;9296;48.084;16.352;2024-03-22T11:06:31;8.27;;;5.93;;
18340;SDS011;9296;48.084;16.352;2024-03-22T11:08:59;9.75;;;6.00;;
18340;SDS011;9296;48.084;16.352;2024-03-22T11:11:28;7.13;;;5.32;;
18340;SDS011;9296;48.084;16.352;2024-03-22T11:13:57;6.35;;;4.85;;
18340;SDS011;9296;48.084;16.352;2024-03-22T11:16:24;7.55;;;5.18;;
18340;SDS011;9296;48.084;16.352;2024-03-22T11:18:51;8.73;;;6.03;;
18340;SDS011;9296;48.084;16.352;2024-03-22T11:21:17;7.97;;;5.57;;
18340;SDS011;9296;48.084;16.352;2024-03-22T11:23:45;8.10;;;5.40;;
18340;SDS011;9296;48.084;16.352;2024-03-22T11:26:11;8.18;;;5.53;;
18340;SDS011;9296;48.084;16.352;2024-03-22T11:28:39;6.60;;;5.10;;
18340;SDS011;9296;48.084;16.352;2024-03-22T11:31:07;7.70;;;5.28;;
18340;SDS011;9296;48.084;16.352;2024-03-22T11:33:34;7.57;;;5.10;;
18340;SDS011;9296;48.084;16.352;2024-03-22T11:36:01;7.22;;;5.18;;
18340;SDS011;9296;48.084;16.352;2024-03-22T11:38:29;9.35;;;6.10;;
18340;SDS011;9296;48.084;16.352;2024-03-22T11:40:55;8.18;;;5.80;;
18340;SDS011;9296;48.084;16.352;2024-03-22T11:43:24;7.65;;;5.63;;
18340;SDS011;9296;48.084;16.352;2024-03-22T11:45:52;7.45;;;5.25;;
18340;SDS011;9296;48.084;16.352;2024-03-22T11:48:21;6.50;;;4.55;;
18340;SDS011;9296;48.084;16.352;2024-03-22T11:50:47;7.05;;;5.07;;
18340;SDS011;9296;48.084;16.352;2024-03-22T11:53:15;6.57;;;4.82;;
18340;SDS011;9296;48.084;16.352;2024-03-22T11:55:43;8.25;;;5.45;;
18340;SDS011;9296;48.084;16.352;2024-03-22T11:58:09;8.73;;;5.82;;
18340;SDS011;9296;48.084;16.352;2024-03-22T12:00:36;7.28;;;5.75;;
18340;SDS011;9296;48.084;16.352;2024-03-22T12:03:03;7.20;;;5.57;;
18340;SDS011;9296;48.084;16.352;2024-03-22T12:05:33;5.80;;;5.03;;
18340;SDS011;9296;48.084;16.352;2024-03-22T12:07:59;5.60;;;4.40;;
18340;SDS011;9296;48.084;16.352;2024-03-22T12:10:27;6.95;;;4.85;;
18340;SDS011;9296;48.084;16.352;2024-03-22T12:12:53;7.07;;;4.85;;
18340;SDS011;9296;48.084;16.352;2024-03-22T12:15:22;6.63;;;4.97;;
18340;SDS011;9296;48.084;16.352;2024-03-22T12:17:48;5.10;;;4.30;;
18340;SDS011;9296;48.084;16.352;2024-03-22T12:20:15;5.10;;;4.28;;
18340;SDS011;9296;48.084;16.352;2024-03-22T12:22:46;5.40;;;4.18;;
18340;SDS011;9296;48.084;16.352;2024-03-22T12:25:14;9.95;;;4.75;;
18340;SDS011;9296;48.084;16.352;2024-03-22T12:27:42;9.75;;;5.00;;
18340;SDS011;9296;48.084;16.352;2024-03-22T12:30:12;5.07;;;3.90;;
18340;SDS011;9296;48.084;16.352;2024-03-22T12:32:39;4.95;;;3.80;;
18340;SDS011;9296;48.084;16.352;2024-03-22T12:35:07;4.72;;;3.65;;
18340;SDS011;9296;48.084;16.352;2024-03-22T12:37:33;6.10;;;3.60;;
18340;SDS011;9296;48.084;16.352;2024-03-22T12:40:05;4.97;;;3.40;;
18340;SDS011;9296;48.084;16.352;2024-03-22T12:42:38;6.75;;;4.43;;
18340;SDS011;9296;48.084;16.352;2024-03-22T12:45:06;5.78;;;4.20;;
18340;SDS011;9296;48.084;16.352;2024-03-22T12:47:32;5.22;;;3.90;;
18340;SDS011;9296;48.084;16.352;2024-03-22T12:50:00;5.93;;;3.47;;
18340;SDS011;9296;48.084;16.352;2024-03-22T12:52:26;5.40;;;3.35;;
18340;SDS011;9296;48.084;16.352;2024-03-22T12:58:00;5.93;;;3.42;;
18340;SDS011;9296;48.084;16.352;2024-03-22T13:00:28;5.40;;;3.78;;
18340;SDS011;9296;48.084;16.352;2024-03-22T13:03:11;5.68;;;3.33;;
18340;SDS011;9296;48.084;16.352;2024-03-22T13:05:40;5.20;;;3.70;;
18340;SDS011;9296;48.084;16.352;2024-03-22T13:08:07;4.90;;;3.67;;
18340;SDS011;9296;48.084;16.352;2024-03-22T13:10:37;4.53;;;3.42;;
18340;SDS011;9296;48.084;16.352;2024-03-22T13:13:09;7.88;;;2.92;;
18340;SDS011;9296;48.084;16.352;2024-03-22T13:26:38;4.57;;;3.30;;
18340;SDS011;9296;48.084;16.352;2024-03-22T13:29:07;6.03;;;3.50;;
18340;SDS011;9296;48.084;16.352;2024-03-22T13:31:33;4.95;;;3.25;;
18340;SDS011;9296;48.084;16.352;2024-03-22T13:34:01;7.75;;;3.53;;
18340;SDS011;9296;48.084;16.352;2024-03-22T13:36:29;6.20;;;3.72;;
18340;SDS011;9296;48.084;16.352;2024-03-22T13:42:19;6.05;;;4.32;;
18340;SDS011;9296;48.084;16.352;2024-03-22T13:44:48;5.38;;;3.88;;
18340;SDS011;9296;48.084;16.352;2024-03-22T13:47:15;4.72;;;3.90;;
18340;SDS011;9296;48.084;16.352;2024-03-22T13:49:43;5.57;;;4.00;;
18340;SDS011;9296;48.084;16.352;2024-03-22T13:52:10;5.13;;;3.80;;
18340;SDS011;9296;48.084;16.352;2024-03-22T13:57:41;4.93;;;3.50;;
18340;SDS011;9296;48.084;16.352;2024-03-22T14:00:10;6.75;;;4.30;;
18340;SDS011;9296;48.084;16.352;2024-03-22T14:02:39;4.93;;;4.03;;
18340;SDS011;9296;48.084;16.352;2024-03-22T14:11:17;6.55;;;4.13;;
18340;SDS011;9296;48.084;16.352;2024-03-22T14:13:43;8.05;;;4.88;;
18340;SDS011;9296;48.084;16.352;2024-03-22T14:16:12;6.65;;;4.47;;
18340;SDS011;9296;48.084;16.352;2024-03-22T14:18:39;6.93;;;4.70;;
18340;SDS011;9296;48.084;16.352;2024-03-22T14:21:08;5.15;;;4.15;;
18340;SDS011;9296;48.084;16.352;2024-03-22T14:23:34;6.38;;;4.13;;
18340;SDS011;9296;48.084;16.352;2024-03-22T14:26:02;6.80;;;4.13;;
18340;SDS011;9296;48.084;16.352;2024-03-22T14:28:28;8.88;;;4.68;;
18340;SDS011;9296;48.084;16.352;2024-03-22T14:30:56;5.20;;;3.90;;
18340;SDS011;9296;48.084;16.352;2024-03-22T14:33:24;5.20;;;3.90;;
18340;SDS011;9296;48.084;16.352;2024-03-22T14:35:51;5.25;;;3.78;;
18340;SDS011;9296;48.084;16.352;2024-03-22T14:41:22;9.50;;;4.53;;
18340;SDS011;9296;48.084;16.352;2024-03-22T14:43:50;6.25;;;3.78;;
18340;SDS011;9296;48.084;16.352;2024-03-22T14:46:16;4.95;;;3.58;;
18340;SDS011;9296;48.084;16.352;2024-03-22T14:48:49;5.75;;;4.00;;
18340;SDS011;9296;48.084;16.352;2024-03-22T14:51:15;6.75;;;3.53;;
18340;SDS011;9296;48.084;16.352;2024-03-22T14:59:50;6.32;;;3.67;;
18340;SDS011;9296;48.084;16.352;2024-03-22T15:02:18;6.95;;;3.83;;
18340;SDS011;9296;48.084;16.352;2024-03-22T15:04:46;5.18;;;3.70;;
18340;SDS011;9296;48.084;16.352;2024-03-22T15:07:13;7.22;;;3.80;;
18340;SDS011;9296;48.084;16.352;2024-03-22T15:12:45;6.30;;;4.18;;
18340;SDS011;9296;48.084;16.352;2024-03-22T15:15:22;6.82;;;4.13;;
18340;SDS011;9296;48.084;16.352;2024-03-22T15:20:26;6.95;;;4.13;;
18340;SDS011;9296;48.084;16.352;2024-03-22T15:28:00;6.00;;;4.20;;
18340;SDS011;9296;48.084;16.352;2024-03-22T15:30:28;5.25;;;3.80;;
18340;SDS011;9296;48.084;16.352;2024-03-22T15:33:13;7.15;;;4.78;;
18340;SDS011;9296;48.084;16.352;2024-03-22T15:35:53;5.88;;;4.10;;
18340;SDS011;9296;48.084;16.352;2024-03-22T15:38:20;5.93;;;3.58;;
18340;SDS011;9296;48.084;16.352;2024-03-22T15:46:12;5.72;;;3.90;;
18340;SDS011;9296;48.084;16.352;2024-03-22T15:48:45;7.47;;;4.07;;
18340;SDS011;9296;48.084;16.352;2024-03-22T15:51:16;6.85;;;4.43;;
18340;SDS011;9296;48.084;16.352;2024-03-22T15:56:54;6.10;;;4.07;;
18340;SDS011;9296;48.084;16.352;2024-03-22T15:59:24;5.45;;;4.05;;
18340;SDS011;9296;48.084;16.352;2024-03-22T16:04:55;5.57;;;3.80;;
18340;SDS011;9296;48.084;16.352;2024-03-22T16:07:26;9.50;;;4.20;;
18340;SDS011;9296;48.084;16.352;2024-03-22T16:09:53;5.13;;;3.85;;
18340;SDS011;9296;48.084;16.352;2024-03-22T16:12:21;7.70;;;3.30;;
18340;SDS011;9296;48.084;16.352;2024-03-22T16:22:59;6.05;;;3.70;;
18340;SDS011;9296;48.084;16.352;2024-03-22T16:27:58;6.35;;;3.88;;
18340;SDS011;9296;48.084;16.352;2024-03-22T16:30:51;6.82;;;4.10;;
18340;SDS011;9296;48.084;16.352;2024-03-22T16:33:19;5.97;;;4.40;;
18340;SDS011;9296;48.084;16.352;2024-03-22T16:44:08;6.25;;;4.32;;
18340;SDS011;9296;48.084;16.352;2024-03-22T16:46:35;7.57;;;4.25;;
18340;SDS011;9296;48.084;16.352;2024-03-22T16:49:01;7.18;;;4.30;;
18340;SDS011;9296;48.084;16.352;2024-03-22T16:51:28;6.35;;;4.15;;
18340;SDS011;9296;48.084;16.352;2024-03-22T16:53:54;7.40;;;4.65;;
18340;SDS011;9296;48.084;16.352;2024-03-22T16:56:22;4.97;;;4.18;;
18340;SDS011;9296;48.084;16.352;2024-03-22T16:58:48;6.20;;;4.93;;
18340;SDS011;9296;48.084;16.352;2024-03-22T17:01:17;7.90;;;4.90;;
18340;SDS011;9296;48.084;16.352;2024-03-22T17:03:43;7.70;;;4.78;;
18340;SDS011;9296;48.084;16.352;2024-03-22T17:06:11;7.28;;;5.00;;
18340;SDS011;9296;48.084;16.352;2024-03-22T17:08:37;8.38;;;5.45;;
18340;SDS011;9296;48.084;16.352;2024-03-22T17:11:05;8.32;;;5.07;;
18340;SDS011;9296;48.084;16.352;2024-03-22T17:13:31;7.07;;;5.38;;
18340;SDS011;9296;48.084;16.352;2024-03-22T17:15:58;8.73;;;5.70;;
18340;SDS011;9296;48.084;16.352;2024-03-22T17:18:27;9.38;;;6.03;;
18340;SDS011;9296;48.084;16.352;2024-03-22T17:20:54;7.60;;;5.38;;
18340;SDS011;9296;48.084;16.352;2024-03-22T17:23:20;8.48;;;5.03;;
18340;SDS011;9296;48.084;16.352;2024-03-22T17:25:48;7.85;;;5.40;;
18340;SDS011;9296;48.084;16.352;2024-03-22T17:28:14;7.45;;;5.18;;
18340;SDS011;9296;48.084;16.352;2024-03-22T17:30:44;7.63;;;5.32;;
18340;SDS011;9296;48.084;16.352;2024-03-22T17:33:10;8.48;;;4.90;;
18340;SDS011;9296;48.084;16.352;2024-03-22T17:35:39;6.93;;;5.10;;
18340;SDS011;9296;48.084;16.352;2024-03-22T17:38:05;8.27;;;4.85;;
18340;SDS011;9296;48.084;16.352;2024-03-22T17:40:35;7.07;;;5.40;;
18340;SDS011;9296;48.084;16.352;2024-03-22T17:43:02;9.43;;;5.20;;
18340;SDS011;9296;48.084;16.352;2024-03-22T17:45:29;9.60;;;6.07;;
18340;SDS011;9296;48.084;16.352;2024-03-22T17:47:56;9.57;;;5.80;;
18340;SDS011;9296;48.084;16.352;2024-03-22T17:50:23;7.18;;;5.35;;
18340;SDS011;9296;48.084;16.352;2024-03-22T17:52:51;9.15;;;5.72;;
18340;SDS011;9296;48.084;16.352;2024-03-22T17:55:18;8.38;;;5.70;;
18340;SDS011;9296;48.084;16.352;2024-03-22T17:57:45;8.32;;;5.93;;
18340;SDS011;9296;48.084;16.352;2024-03-22T18:00:13;9.13;;;6.88;;
18340;SDS011;9296;48.084;16.352;2024-03-22T18:02:39;8.57;;;5.63;;
18340;SDS011;9296;48.084;16.352;2024-03-22T18:05:07;9.57;;;5.93;;
18340;SDS011;9296;48.084;16.352;2024-03-22T18:07:33;10.60;;;6.28;;
18340;SDS011;9296;48.084;16.352;2024-03-22T18:13:23;7.50;;;5.40;;
18340;SDS011;9296;48.084;16.352;2024-03-22T18:15:51;10.90;;;5.43;;
18340;SDS011;9296;48.084;16.352;2024-03-22T18:18:17;8.88;;;6.55;;
18340;SDS011;9296;48.084;16.352;2024-03-22T18:20:45;8.25;;;6.20;;
18340;SDS011;9296;48.084;16.352;2024-03-22T18:23:14;7.28;;;4.53;;
18340;SDS011;9296;48.084;16.352;2024-03-22T18:25:42;8.82;;;5.10;;
18340;SDS011;9296;48.084;16.352;2024-03-22T18:28:08;9.07;;;5.50;;
18340;SDS011;9296;48.084;16.352;2024-03-22T18:30:37;7.88;;;5.60;;
18340;SDS011;9296;48.084;16.352;2024-03-22T18:33:04;7.57;;;5.25;;
18340;SDS011;9296;48.084;16.352;2024-03-22T18:35:31;7.75;;;5.85;;
18340;SDS011;9296;48.084;16.352;2024-03-22T18:37:57;7.43;;;5.88;;
18340;SDS011;9296;48.084;16.352;2024-03-22T18:40:24;8.70;;;6.07;;
18340;SDS011;9296;48.084;16.352;2024-03-22T18:42:51;8.38;;;6.47;;
18340;SDS011;9296;48.084;16.352;2024-03-22T18:45:18;9.15;;;6.07;;
18340;SDS011;9296;48.084;16.352;2024-03-22T18:47:46;9.48;;;6.40;;
18340;SDS011;9296;48.084;16.352;2024-03-22T18:50:13;9.32;;;6.10;;
18340;SDS011;9296;48.084;16.352;2024-03-22T18:52:40;11.70;;;6.00;;
18340;SDS011;9296;48.084;16.352;2024-03-22T18:55:07;11.35;;;6.82;;
18340;SDS011;9296;48.084;16.352;2024-03-22T18:57:35;10.48;;;5.75;;
18340;SDS011;9296;48.084;16.352;2024-03-22T19:00:02;9.75;;;6.13;;
18340;SDS011;9296;48.084;16.352;2024-03-22T19:02:29;8.52;;;5.68;;
18340;SDS011;9296;48.084;16.352;2024-03-22T19:04:58;7.85;;;5.15;;
18340;SDS011;9296;48.084;16.352;2024-03-22T19:07:24;12.13;;;6.80;;
18340;SDS011;9296;48.084;16.352;2024-03-22T19:09:51;12.75;;;8.23;;
18340;SDS011;9296;48.084;16.352;2024-03-22T19:12:17;8.40;;;6.03;;
18340;SDS011;9296;48.084;16.352;2024-03-22T19:14:46;9.20;;;6.13;;
18340;SDS011;9296;48.084;16.352;2024-03-22T19:17:12;9.45;;;7.18;;
18340;SDS011;9296;48.084;16.352;2024-03-22T19:19:40;9.93;;;6.82;;
18340;SDS011;9296;48.084;16.352;2024-03-22T19:22:07;8.93;;;6.80;;
18340;SDS011;9296;48.084;16.352;2024-03-22T19:24:35;10.25;;;6.80;;
18340;SDS011;9296;48.084;16.352;2024-03-22T19:27:02;9.73;;;7.13;;
18340;SDS011;9296;48.084;16.352;2024-03-22T19:29:29;11.73;;;6.43;;
18340;SDS011;9296;48.084;16.352;2024-03-22T19:31:57;11.57;;;7.03;;
18340;SDS011;9296;48.084;16.352;2024-03-22T19:34:23;11.00;;;6.95;;
18340;SDS011;9296;48.084;16.352;2024-03-22T19:36:50;12.75;;;7.70;;
18340;SDS011;9296;48.084;16.352;2024-03-22T19:39:18;11.32;;;7.38;;
18340;SDS011;9296;48.084;16.352;2024-03-22T19:41:46;12.18;;;7.97;;
18340;SDS011;9296;48.084;16.352;2024-03-22T19:44:12;12.38;;;8.02;;
18340;SDS011;9296;48.084;16.352;2024-03-22T19:46:40;11.10;;;7.75;;
18340;SDS011;9296;48.084;16.352;2024-03-22T19:49:06;9.35;;;7.20;;
18340;SDS011;9296;48.084;16.352;2024-03-22T19:51:33;9.98;;;7.43;;
18340;SDS011;9296;48.084;16.352;2024-03-22T19:54:00;11.15;;;7.32;;
18340;SDS011;9296;48.084;16.352;2024-03-22T19:56:29;12.63;;;7.38;;
18340;SDS011;9296;48.084;16.352;2024-03-22T19:58:55;14.05;;;8.20;;
18340;SDS011;9296;48.084;16.352;2024-03-22T20:01:22;13.32;;;8.50;;
18340;SDS011;9296;48.084;16.352;2024-03-22T20:03:48;10.13;;;7.97;;
18340;SDS011;9296;48.084;16.352;2024-03-22T20:06:16;12.75;;;7.72;;
18340;SDS011;9296;48.084;16.352;2024-03-22T20:08:43;12.02;;;8.02;;
18340;SDS011;9296;48.084;16.352;2024-03-22T20:11:11;11.85;;;8.02;;
18340;SDS011;9296;48.084;16.352;2024-03-22T20:13:38;13.82;;;7.90;;
18340;SDS011;9296;48.084;16.352;2024-03-22T20:16:06;15.95;;;8.60;;
18340;SDS011;9296;48.084;16.352;2024-03-22T20:18:33;14.20;;;9.38;;
18340;SDS011;9296;48.084;16.352;2024-03-22T20:21:00;13.18;;;9.50;;
18340;SDS011;9296;48.084;16.352;2024-03-22T20:23:27;13.00;;;9.15;;